LIPU METAR and TAF | Updated Today

LIPU METAR

Padova Airport

Observation time: 6:35 hr. ago

LIPU 061350Z 36004KT 310V030 6000 NSC 23/15 Q1027

Need help? Read our tutorial on how to read METARs or read the parsed version below.

Padova Airport (LIPU) METAR

  • Weather conditions on Thu, 06 Oct 2022 13:50:00 +0000 (6:35 hr. ago):
  • Present conditions: Dry
  • Clouds: No significant clouds are observed
  • Visibility: 6000 meters
  • Wind: 360 degrees at 4 knots
  • Temperature: 23 celsius
  • Dew point: 15 celsius
  • Pressure: 1027 millibars
  • Remarks: None


Useful to know...

  • Codes: LIPU/QPA
  • Airport elevation: 44ft
  • Municipality: Padova
  • Country: Italy
  • Continent: Europe